sensor_id;sensor_type;location;lat;lon;timestamp;P1;durP1;ratioP1;P2;durP2;ratioP2
72904;SDS011;61048;52.162;4.516;2023-03-14T00:01:51;4.63;;;0.73;;
72904;SDS011;61048;52.162;4.516;2023-03-14T00:04:18;3.78;;;0.30;;
72904;SDS011;61048;52.162;4.516;2023-03-14T00:06:45;6.10;;;0.60;;
72904;SDS011;61048;52.162;4.516;2023-03-14T00:09:12;5.05;;;0.85;;
72904;SDS011;61048;52.162;4.516;2023-03-14T00:11:39;3.63;;;0.65;;
72904;SDS011;61048;52.162;4.516;2023-03-14T00:14:06;5.07;;;1.23;;
72904;SDS011;61048;52.162;4.516;2023-03-14T00:16:33;6.10;;;0.57;;
72904;SDS011;61048;52.162;4.516;2023-03-14T00:19:01;3.05;;;0.63;;
72904;SDS011;61048;52.162;4.516;2023-03-14T00:21:28;4.97;;;0.52;;
72904;SDS011;61048;52.162;4.516;2023-03-14T00:23:55;4.55;;;0.57;;
72904;SDS011;61048;52.162;4.516;2023-03-14T00:26:22;4.45;;;0.63;;
72904;SDS011;61048;52.162;4.516;2023-03-14T00:28:50;3.90;;;0.57;;
72904;SDS011;61048;52.162;4.516;2023-03-14T00:31:18;7.50;;;0.70;;
72904;SDS011;61048;52.162;4.516;2023-03-14T00:33:45;4.43;;;0.47;;
72904;SDS011;61048;52.162;4.516;2023-03-14T00:36:14;7.07;;;0.88;;
72904;SDS011;61048;52.162;4.516;2023-03-14T00:38:43;4.47;;;0.55;;
72904;SDS011;61048;52.162;4.516;2023-03-14T00:41:12;5.15;;;0.45;;
72904;SDS011;61048;52.162;4.516;2023-03-14T00:43:40;5.43;;;0.70;;
72904;SDS011;61048;52.162;4.516;2023-03-14T00:46:08;5.07;;;0.60;;
72904;SDS011;61048;52.162;4.516;2023-03-14T00:48:35;6.25;;;0.90;;
72904;SDS011;61048;52.162;4.516;2023-03-14T00:51:02;4.55;;;0.77;;
72904;SDS011;61048;52.162;4.516;2023-03-14T00:53:32;3.35;;;0.60;;
72904;SDS011;61048;52.162;4.516;2023-03-14T00:56:02;4.65;;;0.80;;
72904;SDS011;61048;52.162;4.516;2023-03-14T00:58:30;6.03;;;1.38;;
72904;SDS011;61048;52.162;4.516;2023-03-14T01:01:04;8.45;;;0.73;;
72904;SDS011;61048;52.162;4.516;2023-03-14T01:03:32;4.80;;;0.90;;
72904;SDS011;61048;52.162;4.516;2023-03-14T01:06:06;5.55;;;0.70;;
72904;SDS011;61048;52.162;4.516;2023-03-14T01:08:35;6.07;;;0.98;;
72904;SDS011;61048;52.162;4.516;2023-03-14T01:11:04;7.47;;;1.08;;
72904;SDS011;61048;52.162;4.516;2023-03-14T01:13:32;8.45;;;0.93;;
72904;SDS011;61048;52.162;4.516;2023-03-14T01:16:00;5.68;;;0.55;;
72904;SDS011;61048;52.162;4.516;2023-03-14T01:18:29;8.75;;;0.98;;
72904;SDS011;61048;52.162;4.516;2023-03-14T01:20:56;5.00;;;0.63;;
72904;SDS011;61048;52.162;4.516;2023-03-14T01:23:23;7.70;;;0.70;;
72904;SDS011;61048;52.162;4.516;2023-03-14T01:25:52;6.90;;;1.17;;
72904;SDS011;61048;52.162;4.516;2023-03-14T01:28:19;5.40;;;1.00;;
72904;SDS011;61048;52.162;4.516;2023-03-14T01:30:46;5.35;;;0.45;;
72904;SDS011;61048;52.162;4.516;2023-03-14T01:33:13;5.05;;;0.82;;
72904;SDS011;61048;52.162;4.516;2023-03-14T01:35:40;7.40;;;0.82;;
72904;SDS011;61048;52.162;4.516;2023-03-14T01:38:06;6.28;;;1.08;;
72904;SDS011;61048;52.162;4.516;2023-03-14T01:40:33;11.57;;;1.25;;
72904;SDS011;61048;52.162;4.516;2023-03-14T01:43:14;6.60;;;0.60;;
72904;SDS011;61048;52.162;4.516;2023-03-14T01:48:51;5.75;;;0.88;;
72904;SDS011;61048;52.162;4.516;2023-03-14T01:51:23;7.45;;;1.10;;
72904;SDS011;61048;52.162;4.516;2023-03-14T01:53:56;9.00;;;0.73;;
72904;SDS011;61048;52.162;4.516;2023-03-14T01:56:29;6.47;;;1.23;;
72904;SDS011;61048;52.162;4.516;2023-03-14T01:58:59;6.45;;;0.65;;
72904;SDS011;61048;52.162;4.516;2023-03-14T02:01:27;6.60;;;1.10;;
72904;SDS011;61048;52.162;4.516;2023-03-14T02:03:55;7.07;;;1.10;;
72904;SDS011;61048;52.162;4.516;2023-03-14T02:06:26;7.40;;;1.48;;
72904;SDS011;61048;52.162;4.516;2023-03-14T02:08:57;7.78;;;0.93;;
72904;SDS011;61048;52.162;4.516;2023-03-14T02:11:26;6.90;;;0.77;;
72904;SDS011;61048;52.162;4.516;2023-03-14T02:13:56;6.55;;;1.00;;
72904;SDS011;61048;52.162;4.516;2023-03-14T02:16:25;6.93;;;0.60;;
72904;SDS011;61048;52.162;4.516;2023-03-14T02:18:52;4.65;;;1.27;;
72904;SDS011;61048;52.162;4.516;2023-03-14T02:21:20;6.30;;;0.73;;
72904;SDS011;61048;52.162;4.516;2023-03-14T02:23:58;8.02;;;1.30;;
72904;SDS011;61048;52.162;4.516;2023-03-14T02:26:31;5.07;;;0.80;;
72904;SDS011;61048;52.162;4.516;2023-03-14T02:29:05;7.38;;;0.70;;
72904;SDS011;61048;52.162;4.516;2023-03-14T02:31:32;6.97;;;0.85;;
72904;SDS011;61048;52.162;4.516;2023-03-14T02:34:00;6.10;;;0.90;;
72904;SDS011;61048;52.162;4.516;2023-03-14T02:36:28;5.93;;;1.35;;
72904;SDS011;61048;52.162;4.516;2023-03-14T02:38:58;6.78;;;0.75;;
72904;SDS011;61048;52.162;4.516;2023-03-14T02:41:32;5.30;;;0.70;;
72904;SDS011;61048;52.162;4.516;2023-03-14T02:43:59;4.93;;;0.77;;
72904;SDS011;61048;52.162;4.516;2023-03-14T02:46:27;6.53;;;0.85;;
72904;SDS011;61048;52.162;4.516;2023-03-14T02:48:55;5.85;;;0.73;;
72904;SDS011;61048;52.162;4.516;2023-03-14T02:51:25;4.05;;;0.55;;
72904;SDS011;61048;52.162;4.516;2023-03-14T02:53:53;5.68;;;0.80;;
72904;SDS011;61048;52.162;4.516;2023-03-14T02:56:19;5.35;;;0.60;;
72904;SDS011;61048;52.162;4.516;2023-03-14T02:58:46;4.60;;;0.60;;
72904;SDS011;61048;52.162;4.516;2023-03-14T03:01:13;6.35;;;1.13;;
72904;SDS011;61048;52.162;4.516;2023-03-14T03:03:41;4.47;;;0.65;;
72904;SDS011;61048;52.162;4.516;2023-03-14T03:06:08;6.57;;;0.73;;
72904;SDS011;61048;52.162;4.516;2023-03-14T03:08:35;4.40;;;0.60;;
72904;SDS011;61048;52.162;4.516;2023-03-14T03:11:03;4.25;;;0.68;;
72904;SDS011;61048;52.162;4.516;2023-03-14T03:13:30;4.85;;;0.73;;
72904;SDS011;61048;52.162;4.516;2023-03-14T03:15:57;6.63;;;0.75;;
72904;SDS011;61048;52.162;4.516;2023-03-14T03:18:24;6.53;;;1.30;;
72904;SDS011;61048;52.162;4.516;2023-03-14T03:20:52;6.55;;;0.47;;
72904;SDS011;61048;52.162;4.516;2023-03-14T03:23:19;6.82;;;1.40;;
72904;SDS011;61048;52.162;4.516;2023-03-14T03:25:50;3.40;;;0.55;;
72904;SDS011;61048;52.162;4.516;2023-03-14T03:28:17;4.60;;;0.63;;
72904;SDS011;61048;52.162;4.516;2023-03-14T03:30:44;4.13;;;0.40;;
72904;SDS011;61048;52.162;4.516;2023-03-14T03:33:11;5.10;;;0.50;;
72904;SDS011;61048;52.162;4.516;2023-03-14T03:35:43;5.07;;;0.60;;
72904;SDS011;61048;52.162;4.516;2023-03-14T03:38:12;3.42;;;0.57;;
72904;SDS011;61048;52.162;4.516;2023-03-14T03:40:39;5.32;;;0.63;;
72904;SDS011;61048;52.162;4.516;2023-03-14T03:43:06;3.63;;;0.73;;
72904;SDS011;61048;52.162;4.516;2023-03-14T03:45:34;3.38;;;1.08;;
72904;SDS011;61048;52.162;4.516;2023-03-14T03:48:00;3.60;;;0.43;;
72904;SDS011;61048;52.162;4.516;2023-03-14T03:50:27;5.07;;;0.52;;
72904;SDS011;61048;52.162;4.516;2023-03-14T03:52:54;4.93;;;0.70;;
72904;SDS011;61048;52.162;4.516;2023-03-14T03:55:22;4.25;;;0.52;;
72904;SDS011;61048;52.162;4.516;2023-03-14T03:57:50;3.42;;;0.82;;
72904;SDS011;61048;52.162;4.516;2023-03-14T04:00:17;5.90;;;0.40;;
72904;SDS011;61048;52.162;4.516;2023-03-14T04:02:44;7.57;;;0.70;;
72904;SDS011;61048;52.162;4.516;2023-03-14T04:05:11;6.53;;;1.00;;
72904;SDS011;61048;52.162;4.516;2023-03-14T04:07:38;6.35;;;0.88;;
72904;SDS011;61048;52.162;4.516;2023-03-14T04:10:05;4.43;;;0.63;;
72904;SDS011;61048;52.162;4.516;2023-03-14T04:12:33;5.88;;;0.70;;
72904;SDS011;61048;52.162;4.516;2023-03-14T04:15:00;4.90;;;0.75;;
72904;SDS011;61048;52.162;4.516;2023-03-14T04:17:27;3.83;;;0.80;;
72904;SDS011;61048;52.162;4.516;2023-03-14T04:19:54;4.30;;;0.43;;
72904;SDS011;61048;52.162;4.516;2023-03-14T04:22:21;4.97;;;0.80;;
72904;SDS011;61048;52.162;4.516;2023-03-14T04:24:48;6.18;;;0.95;;
72904;SDS011;61048;52.162;4.516;2023-03-14T04:27:15;3.17;;;0.75;;
72904;SDS011;61048;52.162;4.516;2023-03-14T04:29:43;4.72;;;0.65;;
72904;SDS011;61048;52.162;4.516;2023-03-14T04:32:10;5.88;;;0.82;;
72904;SDS011;61048;52.162;4.516;2023-03-14T04:34:37;4.32;;;0.80;;
72904;SDS011;61048;52.162;4.516;2023-03-14T04:37:04;4.00;;;0.68;;
72904;SDS011;61048;52.162;4.516;2023-03-14T04:39:30;6.38;;;0.98;;
72904;SDS011;61048;52.162;4.516;2023-03-14T04:41:57;2.65;;;0.55;;
72904;SDS011;61048;52.162;4.516;2023-03-14T04:44:24;5.13;;;0.63;;
72904;SDS011;61048;52.162;4.516;2023-03-14T04:46:53;5.85;;;0.60;;
72904;SDS011;61048;52.162;4.516;2023-03-14T04:49:19;4.25;;;0.50;;
72904;SDS011;61048;52.162;4.516;2023-03-14T04:51:46;4.15;;;0.68;;
72904;SDS011;61048;52.162;4.516;2023-03-14T04:54:15;4.75;;;1.27;;
72904;SDS011;61048;52.162;4.516;2023-03-14T04:56:42;2.80;;;0.60;;
72904;SDS011;61048;52.162;4.516;2023-03-14T04:59:09;3.97;;;0.82;;
72904;SDS011;61048;52.162;4.516;2023-03-14T05:01:36;3.15;;;0.70;;
72904;SDS011;61048;52.162;4.516;2023-03-14T05:04:04;3.40;;;0.63;;
72904;SDS011;61048;52.162;4.516;2023-03-14T05:06:31;5.82;;;0.80;;
72904;SDS011;61048;52.162;4.516;2023-03-14T05:08:58;4.35;;;0.70;;
72904;SDS011;61048;52.162;4.516;2023-03-14T05:11:25;5.18;;;0.98;;
72904;SDS011;61048;52.162;4.516;2023-03-14T05:13:52;4.10;;;0.75;;
72904;SDS011;61048;52.162;4.516;2023-03-14T05:16:19;2.72;;;0.60;;
72904;SDS011;61048;52.162;4.516;2023-03-14T05:18:45;3.55;;;0.70;;
72904;SDS011;61048;52.162;4.516;2023-03-14T05:21:14;3.85;;;0.60;;
72904;SDS011;61048;52.162;4.516;2023-03-14T05:23:41;2.15;;;0.47;;
72904;SDS011;61048;52.162;4.516;2023-03-14T05:26:07;3.38;;;0.50;;
72904;SDS011;61048;52.162;4.516;2023-03-14T05:28:34;3.35;;;0.55;;
72904;SDS011;61048;52.162;4.516;2023-03-14T05:31:04;3.75;;;0.50;;
72904;SDS011;61048;52.162;4.516;2023-03-14T05:33:32;5.05;;;0.70;;
72904;SDS011;61048;52.162;4.516;2023-03-14T05:35:59;2.60;;;0.30;;
72904;SDS011;61048;52.162;4.516;2023-03-14T05:38:27;2.33;;;0.40;;
72904;SDS011;61048;52.162;4.516;2023-03-14T05:40:54;3.42;;;0.60;;
72904;SDS011;61048;52.162;4.516;2023-03-14T05:43:21;7.70;;;0.73;;
72904;SDS011;61048;52.162;4.516;2023-03-14T05:45:48;4.97;;;0.50;;
72904;SDS011;61048;52.162;4.516;2023-03-14T05:48:15;2.78;;;0.45;;
72904;SDS011;61048;52.162;4.516;2023-03-14T05:50:43;5.78;;;0.40;;
72904;SDS011;61048;52.162;4.516;2023-03-14T05:53:10;4.28;;;0.50;;
72904;SDS011;61048;52.162;4.516;2023-03-14T05:55:38;3.83;;;0.57;;
72904;SDS011;61048;52.162;4.516;2023-03-14T05:58:05;4.97;;;0.70;;
72904;SDS011;61048;52.162;4.516;2023-03-14T06:00:32;6.72;;;0.77;;
72904;SDS011;61048;52.162;4.516;2023-03-14T06:02:59;21.60;;;2.35;;
72904;SDS011;61048;52.162;4.516;2023-03-14T06:05:26;26.92;;;4.55;;
72904;SDS011;61048;52.162;4.516;2023-03-14T06:07:53;22.13;;;3.90;;
72904;SDS011;61048;52.162;4.516;2023-03-14T06:10:20;20.25;;;2.97;;
72904;SDS011;61048;52.162;4.516;2023-03-14T06:12:48;21.00;;;3.13;;
72904;SDS011;61048;52.162;4.516;2023-03-14T06:15:15;19.52;;;2.90;;
72904;SDS011;61048;52.162;4.516;2023-03-14T06:17:42;18.55;;;3.05;;
72904;SDS011;61048;52.162;4.516;2023-03-14T06:20:09;17.15;;;2.67;;
72904;SDS011;61048;52.162;4.516;2023-03-14T06:22:37;18.23;;;2.60;;
72904;SDS011;61048;52.162;4.516;2023-03-14T06:25:04;12.82;;;2.22;;
72904;SDS011;61048;52.162;4.516;2023-03-14T06:27:32;17.77;;;2.15;;
72904;SDS011;61048;52.162;4.516;2023-03-14T06:30:01;11.77;;;1.65;;
72904;SDS011;61048;52.162;4.516;2023-03-14T06:32:28;14.43;;;2.28;;
72904;SDS011;61048;52.162;4.516;2023-03-14T06:34:55;12.00;;;1.67;;
72904;SDS011;61048;52.162;4.516;2023-03-14T06:37:22;10.82;;;1.48;;
72904;SDS011;61048;52.162;4.516;2023-03-14T06:39:49;14.32;;;1.65;;
72904;SDS011;61048;52.162;4.516;2023-03-14T06:42:16;13.75;;;1.33;;
72904;SDS011;61048;52.162;4.516;2023-03-14T06:44:43;7.82;;;0.73;;
72904;SDS011;61048;52.162;4.516;2023-03-14T06:47:11;8.48;;;0.88;;
72904;SDS011;61048;52.162;4.516;2023-03-14T06:49:38;7.30;;;1.00;;
72904;SDS011;61048;52.162;4.516;2023-03-14T06:52:05;5.95;;;0.70;;
72904;SDS011;61048;52.162;4.516;2023-03-14T06:54:32;8.88;;;0.85;;
72904;SDS011;61048;52.162;4.516;2023-03-14T06:56:59;7.57;;;1.30;;
72904;SDS011;61048;52.162;4.516;2023-03-14T06:59:26;7.10;;;1.33;;
72904;SDS011;61048;52.162;4.516;2023-03-14T07:01:52;8.23;;;0.90;;
72904;SDS011;61048;52.162;4.516;2023-03-14T07:04:21;4.15;;;0.60;;
72904;SDS011;61048;52.162;4.516;2023-03-14T07:06:47;8.57;;;1.75;;
72904;SDS011;61048;52.162;4.516;2023-03-14T07:09:14;4.55;;;0.43;;
72904;SDS011;61048;52.162;4.516;2023-03-14T07:11:42;4.57;;;0.75;;
72904;SDS011;61048;52.162;4.516;2023-03-14T07:14:09;2.85;;;0.47;;
72904;SDS011;61048;52.162;4.516;2023-03-14T07:16:36;6.82;;;0.65;;
72904;SDS011;61048;52.162;4.516;2023-03-14T07:19:02;5.00;;;0.60;;
72904;SDS011;61048;52.162;4.516;2023-03-14T07:21:31;4.93;;;0.70;;
72904;SDS011;61048;52.162;4.516;2023-03-14T07:23:59;6.60;;;0.68;;
72904;SDS011;61048;52.162;4.516;2023-03-14T07:26:26;7.00;;;0.60;;
72904;SDS011;61048;52.162;4.516;2023-03-14T07:28:53;4.50;;;0.60;;
72904;SDS011;61048;52.162;4.516;2023-03-14T07:31:20;4.85;;;0.70;;
72904;SDS011;61048;52.162;4.516;2023-03-14T07:33:47;2.78;;;0.50;;
72904;SDS011;61048;52.162;4.516;2023-03-14T07:36:14;7.97;;;0.75;;
72904;SDS011;61048;52.162;4.516;2023-03-14T07:38:42;2.97;;;0.50;;
72904;SDS011;61048;52.162;4.516;2023-03-14T07:41:09;5.50;;;0.60;;
72904;SDS011;61048;52.162;4.516;2023-03-14T07:43:36;5.13;;;0.40;;
72904;SDS011;61048;52.162;4.516;2023-03-14T07:46:03;5.05;;;0.73;;
72904;SDS011;61048;52.162;4.516;2023-03-14T07:48:30;4.63;;;0.40;;
72904;SDS011;61048;52.162;4.516;2023-03-14T07:50:57;7.30;;;0.55;;
72904;SDS011;61048;52.162;4.516;2023-03-14T07:53:24;4.13;;;0.32;;
72904;SDS011;61048;52.162;4.516;2023-03-14T07:55:53;3.28;;;0.30;;
72904;SDS011;61048;52.162;4.516;2023-03-14T07:58:20;5.07;;;0.28;;
72904;SDS011;61048;52.162;4.516;2023-03-14T08:00:48;2.45;;;0.22;;
72904;SDS011;61048;52.162;4.516;2023-03-14T08:03:15;3.85;;;0.60;;
72904;SDS011;61048;52.162;4.516;2023-03-14T08:05:42;4.57;;;0.60;;
72904;SDS011;61048;52.162;4.516;2023-03-14T08:08:09;5.18;;;0.43;;
72904;SDS011;61048;52.162;4.516;2023-03-14T08:10:36;4.30;;;0.43;;
72904;SDS011;61048;52.162;4.516;2023-03-14T08:13:04;5.03;;;1.00;;
72904;SDS011;61048;52.162;4.516;2023-03-14T08:15:31;4.53;;;0.68;;
72904;SDS011;61048;52.162;4.516;2023-03-14T08:17:58;2.70;;;0.30;;
72904;SDS011;61048;52.162;4.516;2023-03-14T08:20:26;4.10;;;0.63;;
72904;SDS011;61048;52.162;4.516;2023-03-14T08:22:55;8.00;;;0.55;;
72904;SDS011;61048;52.162;4.516;2023-03-14T08:25:23;3.00;;;0.40;;
72904;SDS011;61048;52.162;4.516;2023-03-14T08:27:50;3.53;;;0.28;;
72904;SDS011;61048;52.162;4.516;2023-03-14T08:30:18;5.38;;;0.32;;
72904;SDS011;61048;52.162;4.516;2023-03-14T08:32:46;2.53;;;0.70;;
72904;SDS011;61048;52.162;4.516;2023-03-14T08:35:14;4.55;;;0.30;;
72904;SDS011;61048;52.162;4.516;2023-03-14T08:37:41;3.10;;;0.75;;
72904;SDS011;61048;52.162;4.516;2023-03-14T08:40:08;2.15;;;0.30;;
72904;SDS011;61048;52.162;4.516;2023-03-14T08:42:36;4.00;;;0.40;;
72904;SDS011;61048;52.162;4.516;2023-03-14T08:45:04;3.33;;;0.45;;
72904;SDS011;61048;52.162;4.516;2023-03-14T08:47:33;2.35;;;0.32;;
72904;SDS011;61048;52.162;4.516;2023-03-14T08:50:00;2.80;;;0.30;;
72904;SDS011;61048;52.162;4.516;2023-03-14T08:52:29;3.67;;;0.45;;
72904;SDS011;61048;52.162;4.516;2023-03-14T08:54:56;4.95;;;0.70;;
72904;SDS011;61048;52.162;4.516;2023-03-14T08:57:23;2.67;;;0.40;;
72904;SDS011;61048;52.162;4.516;2023-03-14T08:59:52;3.47;;;1.13;;
72904;SDS011;61048;52.162;4.516;2023-03-14T09:02:20;4.90;;;0.40;;
72904;SDS011;61048;52.162;4.516;2023-03-14T09:04:49;4.72;;;0.40;;
72904;SDS011;61048;52.162;4.516;2023-03-14T09:07:16;5.47;;;0.50;;
72904;SDS011;61048;52.162;4.516;2023-03-14T09:09:43;7.40;;;0.80;;
72904;SDS011;61048;52.162;4.516;2023-03-14T09:12:10;6.47;;;0.50;;
72904;SDS011;61048;52.162;4.516;2023-03-14T09:14:37;6.22;;;0.73;;
72904;SDS011;61048;52.162;4.516;2023-03-14T09:17:04;8.32;;;0.70;;
72904;SDS011;61048;52.162;4.516;2023-03-14T09:19:31;3.35;;;0.50;;
72904;SDS011;61048;52.162;4.516;2023-03-14T09:22:00;6.88;;;1.17;;
72904;SDS011;61048;52.162;4.516;2023-03-14T09:24:27;8.98;;;0.88;;
72904;SDS011;61048;52.162;4.516;2023-03-14T09:26:54;10.80;;;0.73;;
72904;SDS011;61048;52.162;4.516;2023-03-14T09:29:21;3.72;;;0.73;;
72904;SDS011;61048;52.162;4.516;2023-03-14T09:31:48;9.35;;;0.93;;
72904;SDS011;61048;52.162;4.516;2023-03-14T09:34:15;8.85;;;0.82;;
72904;SDS011;61048;52.162;4.516;2023-03-14T09:36:42;4.78;;;0.55;;
72904;SDS011;61048;52.162;4.516;2023-03-14T09:39:11;8.93;;;1.20;;
72904;SDS011;61048;52.162;4.516;2023-03-14T09:41:39;7.97;;;0.95;;
72904;SDS011;61048;52.162;4.516;2023-03-14T09:44:10;9.15;;;0.52;;
72904;SDS011;61048;52.162;4.516;2023-03-14T09:46:42;8.18;;;0.90;;
72904;SDS011;61048;52.162;4.516;2023-03-14T09:49:14;7.65;;;1.35;;
72904;SDS011;61048;52.162;4.516;2023-03-14T09:51:46;8.57;;;1.00;;
72904;SDS011;61048;52.162;4.516;2023-03-14T09:54:21;8.52;;;1.40;;
72904;SDS011;61048;52.162;4.516;2023-03-14T09:56:56;7.80;;;0.95;;
72904;SDS011;61048;52.162;4.516;2023-03-14T09:59:22;8.52;;;1.08;;
72904;SDS011;61048;52.162;4.516;2023-03-14T10:01:51;12.93;;;1.63;;
72904;SDS011;61048;52.162;4.516;2023-03-14T10:04:20;10.73;;;1.15;;
72904;SDS011;61048;52.162;4.516;2023-03-14T10:06:49;7.85;;;0.80;;
72904;SDS011;61048;52.162;4.516;2023-03-14T10:09:17;8.80;;;1.20;;
72904;SDS011;61048;52.162;4.516;2023-03-14T10:11:51;7.88;;;0.98;;
72904;SDS011;61048;52.162;4.516;2023-03-14T10:14:28;13.68;;;1.52;;
72904;SDS011;61048;52.162;4.516;2023-03-14T10:17:04;11.65;;;0.95;;
72904;SDS011;61048;52.162;4.516;2023-03-14T10:19:34;8.65;;;1.00;;
72904;SDS011;61048;52.162;4.516;2023-03-14T10:22:02;12.75;;;1.40;;
72904;SDS011;61048;52.162;4.516;2023-03-14T10:24:32;10.00;;;1.15;;
72904;SDS011;61048;52.162;4.516;2023-03-14T10:27:01;9.05;;;1.35;;
72904;SDS011;61048;52.162;4.516;2023-03-14T10:29:30;8.93;;;1.17;;
72904;SDS011;61048;52.162;4.516;2023-03-14T10:31:59;10.70;;;1.13;;
72904;SDS011;61048;52.162;4.516;2023-03-14T10:34:28;10.35;;;1.55;;
72904;SDS011;61048;52.162;4.516;2023-03-14T10:36:57;11.45;;;1.40;;
72904;SDS011;61048;52.162;4.516;2023-03-14T10:39:42;13.52;;;1.23;;
72904;SDS011;61048;52.162;4.516;2023-03-14T10:42:14;8.10;;;1.23;;
72904;SDS011;61048;52.162;4.516;2023-03-14T10:44:45;7.95;;;1.13;;
72904;SDS011;61048;52.162;4.516;2023-03-14T10:47:15;12.73;;;0.90;;
72904;SDS011;61048;52.162;4.516;2023-03-14T10:49:45;9.68;;;1.15;;
72904;SDS011;61048;52.162;4.516;2023-03-14T10:52:14;8.95;;;1.23;;
72904;SDS011;61048;52.162;4.516;2023-03-14T10:54:50;10.43;;;1.10;;
72904;SDS011;61048;52.162;4.516;2023-03-14T10:57:21;8.00;;;1.40;;
72904;SDS011;61048;52.162;4.516;2023-03-14T10:59:48;7.85;;;0.98;;
72904;SDS011;61048;52.162;4.516;2023-03-14T11:02:27;8.38;;;0.95;;
72904;SDS011;61048;52.162;4.516;2023-03-14T11:05:18;5.88;;;0.98;;
72904;SDS011;61048;52.162;4.516;2023-03-14T11:07:55;7.00;;;0.82;;
72904;SDS011;61048;52.162;4.516;2023-03-14T11:10:31;12.40;;;0.98;;
72904;SDS011;61048;52.162;4.516;2023-03-14T11:15:32;7.85;;;1.05;;
72904;SDS011;61048;52.162;4.516;2023-03-14T11:18:09;8.57;;;1.02;;
72904;SDS011;61048;52.162;4.516;2023-03-14T11:20:46;8.45;;;0.85;;
72904;SDS011;61048;52.162;4.516;2023-03-14T11:23:20;8.73;;;0.90;;
72904;SDS011;61048;52.162;4.516;2023-03-14T11:25:51;6.82;;;1.45;;
72904;SDS011;61048;52.162;4.516;2023-03-14T11:28:23;5.65;;;0.73;;
72904;SDS011;61048;52.162;4.516;2023-03-14T11:30:57;6.35;;;0.95;;
72904;SDS011;61048;52.162;4.516;2023-03-14T11:33:34;7.20;;;0.98;;
72904;SDS011;61048;52.162;4.516;2023-03-14T11:36:04;7.28;;;1.00;;
72904;SDS011;61048;52.162;4.516;2023-03-14T11:38:34;7.00;;;0.70;;
72904;SDS011;61048;52.162;4.516;2023-03-14T11:41:10;6.00;;;1.10;;
72904;SDS011;61048;52.162;4.516;2023-03-14T11:43:42;7.72;;;0.90;;
72904;SDS011;61048;52.162;4.516;2023-03-14T11:46:14;4.63;;;0.95;;
72904;SDS011;61048;52.162;4.516;2023-03-14T11:48:45;5.95;;;0.75;;
72904;SDS011;61048;52.162;4.516;2023-03-14T11:51:22;8.02;;;1.27;;
72904;SDS011;61048;52.162;4.516;2023-03-14T11:53:55;7.40;;;0.73;;
72904;SDS011;61048;52.162;4.516;2023-03-14T11:56:29;6.20;;;0.57;;
72904;SDS011;61048;52.162;4.516;2023-03-14T11:59:00;5.95;;;0.90;;
72904;SDS011;61048;52.162;4.516;2023-03-14T12:01:33;7.63;;;1.00;;
72904;SDS011;61048;52.162;4.516;2023-03-14T12:04:12;4.68;;;1.13;;
72904;SDS011;61048;52.162;4.516;2023-03-14T12:06:45;7.72;;;1.13;;
72904;SDS011;61048;52.162;4.516;2023-03-14T12:09:15;9.73;;;1.58;;
72904;SDS011;61048;52.162;4.516;2023-03-14T12:11:46;5.93;;;0.70;;
72904;SDS011;61048;52.162;4.516;2023-03-14T12:14:18;6.65;;;0.80;;
72904;SDS011;61048;52.162;4.516;2023-03-14T12:16:48;5.15;;;0.68;;
72904;SDS011;61048;52.162;4.516;2023-03-14T12:19:32;6.43;;;0.63;;
72904;SDS011;61048;52.162;4.516;2023-03-14T12:22:05;4.93;;;0.75;;
72904;SDS011;61048;52.162;4.516;2023-03-14T12:24:35;4.93;;;0.60;;
72904;SDS011;61048;52.162;4.516;2023-03-14T12:27:05;7.70;;;0.70;;
72904;SDS011;61048;52.162;4.516;2023-03-14T12:32:25;4.40;;;1.00;;
72904;SDS011;61048;52.162;4.516;2023-03-14T12:34:52;9.48;;;1.48;;
72904;SDS011;61048;52.162;4.516;2023-03-14T12:37:23;4.40;;;0.60;;
72904;SDS011;61048;52.162;4.516;2023-03-14T12:40:15;5.82;;;0.70;;
72904;SDS011;61048;52.162;4.516;2023-03-14T12:42:54;7.45;;;0.93;;
72904;SDS011;61048;52.162;4.516;2023-03-14T12:45:25;5.03;;;0.60;;
72904;SDS011;61048;52.162;4.516;2023-03-14T12:47:55;4.80;;;0.47;;
72904;SDS011;61048;52.162;4.516;2023-03-14T12:50:35;6.03;;;0.73;;
72904;SDS011;61048;52.162;4.516;2023-03-14T12:53:20;6.20;;;0.40;;
72904;SDS011;61048;52.162;4.516;2023-03-14T12:56:05;7.40;;;0.70;;
72904;SDS011;61048;52.162;4.516;2023-03-14T12:58:47;2.95;;;0.43;;
72904;SDS011;61048;52.162;4.516;2023-03-14T13:01:24;3.83;;;0.70;;
72904;SDS011;61048;52.162;4.516;2023-03-14T13:03:52;5.57;;;0.57;;
72904;SDS011;61048;52.162;4.516;2023-03-14T13:12:03;4.10;;;0.85;;
72904;SDS011;61048;52.162;4.516;2023-03-14T13:14:40;4.30;;;0.85;;
72904;SDS011;61048;52.162;4.516;2023-03-14T13:17:09;5.15;;;0.60;;
72904;SDS011;61048;52.162;4.516;2023-03-14T13:19:37;4.22;;;0.70;;
72904;SDS011;61048;52.162;4.516;2023-03-14T13:22:05;6.75;;;0.82;;
72904;SDS011;61048;52.162;4.516;2023-03-14T13:24:42;3.90;;;0.40;;
72904;SDS011;61048;52.162;4.516;2023-03-14T13:27:09;6.38;;;0.40;;
72904;SDS011;61048;52.162;4.516;2023-03-14T13:29:47;5.10;;;0.70;;
72904;SDS011;61048;52.162;4.516;2023-03-14T13:32:16;2.38;;;0.60;;
72904;SDS011;61048;52.162;4.516;2023-03-14T13:34:45;3.75;;;0.30;;
72904;SDS011;61048;52.162;4.516;2023-03-14T13:37:16;4.25;;;0.40;;
72904;SDS011;61048;52.162;4.516;2023-03-14T13:39:48;3.30;;;0.45;;
72904;SDS011;61048;52.162;4.516;2023-03-14T13:42:16;3.35;;;0.32;;
72904;SDS011;61048;52.162;4.516;2023-03-14T13:44:44;4.00;;;0.73;;
72904;SDS011;61048;52.162;4.516;2023-03-14T13:47:14;5.93;;;0.60;;
72904;SDS011;61048;52.162;4.516;2023-03-14T13:49:42;6.22;;;0.70;;
72904;SDS011;61048;52.162;4.516;2023-03-14T13:52:29;7.15;;;0.65;;
72904;SDS011;61048;52.162;4.516;2023-03-14T13:54:59;3.80;;;0.73;;
72904;SDS011;61048;52.162;4.516;2023-03-14T13:57:28;1.95;;;0.30;;
72904;SDS011;61048;52.162;4.516;2023-03-14T14:00:17;3.97;;;0.60;;
72904;SDS011;61048;52.162;4.516;2023-03-14T14:02:46;3.75;;;0.30;;
72904;SDS011;61048;52.162;4.516;2023-03-14T14:05:14;4.40;;;0.45;;
72904;SDS011;61048;52.162;4.516;2023-03-14T14:07:42;8.05;;;1.38;;
72904;SDS011;61048;52.162;4.516;2023-03-14T14:10:10;3.25;;;0.40;;
72904;SDS011;61048;52.162;4.516;2023-03-14T14:12:39;4.45;;;0.50;;
72904;SDS011;61048;52.162;4.516;2023-03-14T14:15:11;3.13;;;0.40;;
72904;SDS011;61048;52.162;4.516;2023-03-14T14:17:44;21.10;;;2.95;;
72904;SDS011;61048;52.162;4.516;2023-03-14T14:20:18;13.25;;;1.85;;
72904;SDS011;61048;52.162;4.516;2023-03-14T14:22:49;10.63;;;1.00;;
72904;SDS011;61048;52.162;4.516;2023-03-14T14:25:16;12.15;;;1.33;;
72904;SDS011;61048;52.162;4.516;2023-03-14T14:27:44;9.63;;;0.98;;
72904;SDS011;61048;52.162;4.516;2023-03-14T14:33:16;8.15;;;0.82;;
72904;SDS011;61048;52.162;4.516;2023-03-14T14:35:52;7.88;;;0.70;;
72904;SDS011;61048;52.162;4.516;2023-03-14T14:38:22;6.53;;;0.88;;
72904;SDS011;61048;52.162;4.516;2023-03-14T14:40:50;5.75;;;0.90;;
72904;SDS011;61048;52.162;4.516;2023-03-14T14:43:21;6.22;;;1.17;;
72904;SDS011;61048;52.162;4.516;2023-03-14T14:45:50;5.10;;;1.10;;
72904;SDS011;61048;52.162;4.516;2023-03-14T14:48:21;7.95;;;1.33;;
72904;SDS011;61048;52.162;4.516;2023-03-14T14:50:50;6.07;;;0.88;;
72904;SDS011;61048;52.162;4.516;2023-03-14T14:53:23;8.35;;;1.13;;
72904;SDS011;61048;52.162;4.516;2023-03-14T14:55:54;6.70;;;0.80;;
72904;SDS011;61048;52.162;4.516;2023-03-14T14:58:23;6.20;;;0.70;;
72904;SDS011;61048;52.162;4.516;2023-03-14T15:00:53;7.50;;;0.90;;
72904;SDS011;61048;52.162;4.516;2023-03-14T15:03:24;8.02;;;0.95;;
72904;SDS011;61048;52.162;4.516;2023-03-14T15:05:54;5.55;;;0.57;;
72904;SDS011;61048;52.162;4.516;2023-03-14T15:08:21;6.53;;;0.60;;
72904;SDS011;61048;52.162;4.516;2023-03-14T15:10:50;4.50;;;0.43;;
72904;SDS011;61048;52.162;4.516;2023-03-14T15:13:17;5.43;;;0.80;;
72904;SDS011;61048;52.162;4.516;2023-03-14T15:15:44;4.13;;;0.47;;